createdAt,value
2018-03-27T00:00:00.060Z,990.05
2018-03-27T00:01:00.282Z,990.03
2018-03-27T00:02:00.508Z,990.02
2018-03-27T00:03:00.738Z,990.00
2018-03-27T00:04:00.964Z,990.01
2018-03-27T00:05:01.183Z,990.02
2018-03-27T00:06:01.415Z,989.98
2018-03-27T00:07:01.632Z,990.01
2018-03-27T00:08:01.858Z,990.00
2018-03-27T00:09:02.096Z,990.01
2018-03-27T00:10:02.300Z,990.02
2018-03-27T00:11:02.522Z,990.02
2018-03-27T00:12:02.752Z,990.06
2018-03-27T00:13:02.976Z,990.07
2018-03-27T00:14:03.201Z,990.10
2018-03-27T00:15:03.423Z,990.11
2018-03-27T00:16:03.641Z,990.12
2018-03-27T00:17:03.862Z,990.14
2018-03-27T00:18:04.074Z,990.10
2018-03-27T00:19:04.293Z,990.16
2018-03-27T00:20:04.523Z,990.17
2018-03-27T00:21:04.744Z,990.18
2018-03-27T00:22:04.966Z,990.18
2018-03-27T00:23:05.188Z,990.21
2018-03-27T00:24:05.413Z,990.17
2018-03-27T00:25:05.636Z,990.24
2018-03-27T00:26:05.858Z,990.22
2018-03-27T00:27:06.079Z,990.24
2018-03-27T00:28:06.302Z,990.20
2018-03-27T00:29:06.530Z,990.19
2018-03-27T00:30:06.738Z,990.18
2018-03-27T00:31:06.971Z,990.17
2018-03-27T00:32:07.194Z,990.16
2018-03-27T00:33:07.421Z,990.17
2018-03-27T00:34:07.646Z,990.22
2018-03-27T00:35:07.867Z,990.17
2018-03-27T00:36:08.094Z,990.13
2018-03-27T00:37:08.319Z,990.17
2018-03-27T00:38:08.543Z,990.13
2018-03-27T00:39:08.763Z,990.10
2018-03-27T00:40:08.988Z,990.08
2018-03-27T00:41:09.234Z,990.11
2018-03-27T00:42:09.428Z,990.07
2018-03-27T00:43:09.665Z,990.07
2018-03-27T00:44:09.881Z,990.01
2018-03-27T00:45:10.108Z,990.02
2018-03-27T00:46:10.336Z,989.97
2018-03-27T00:47:10.577Z,989.98
2018-03-27T00:48:10.799Z,990.02
2018-03-27T00:49:11.018Z,990.05
2018-03-27T00:50:11.245Z,990.06
2018-03-27T00:51:11.470Z,990.04
2018-03-27T00:52:11.692Z,990.03
2018-03-27T00:53:11.918Z,989.97
2018-03-27T00:54:12.145Z,990.01
2018-03-27T00:55:12.369Z,990.03
2018-03-27T00:56:12.594Z,990.00
2018-03-27T00:57:12.817Z,990.00
2018-03-27T00:58:13.041Z,989.97
2018-03-27T00:59:13.264Z,990.01
2018-03-27T01:00:13.487Z,989.98
2018-03-27T01:01:13.715Z,989.96
2018-03-27T01:02:13.935Z,989.92
2018-03-27T01:03:14.157Z,989.95
2018-03-27T01:04:14.381Z,989.93
2018-03-27T01:05:14.605Z,989.92
2018-03-27T01:06:14.827Z,989.91
2018-03-27T01:07:15.050Z,989.94
2018-03-27T01:08:15.276Z,989.98
2018-03-27T01:09:15.500Z,990.00
2018-03-27T01:10:15.727Z,990.04
2018-03-27T01:11:15.961Z,990.04
2018-03-27T01:12:16.173Z,990.07
2018-03-27T01:13:16.392Z,990.10
2018-03-27T01:14:16.620Z,990.11
2018-03-27T01:15:16.838Z,990.06
2018-03-27T01:16:24.762Z,990.09
2018-03-27T01:17:24.981Z,990.09
2018-03-27T01:18:25.204Z,990.07
2018-03-27T01:19:25.462Z,990.06
2018-03-27T01:20:25.735Z,990.08
2018-03-27T01:21:25.948Z,990.02
2018-03-27T01:22:26.200Z,990.03
2018-03-27T01:23:18.785Z,990.00
2018-03-27T01:24:26.690Z,989.99
2018-03-27T01:25:26.969Z,989.98
2018-03-27T01:26:19.503Z,989.98
2018-03-27T01:27:19.712Z,989.96
2018-03-27T01:28:19.939Z,989.99
2018-03-27T01:29:20.162Z,989.98
2018-03-27T01:30:20.398Z,989.97
2018-03-27T01:31:20.613Z,989.98
2018-03-27T01:32:20.833Z,989.99
2018-03-27T01:33:21.055Z,990.01
2018-03-27T01:34:21.284Z,989.94
2018-03-27T01:35:21.505Z,989.97
2018-03-27T01:36:21.745Z,989.99
2018-03-27T01:37:21.978Z,989.97
2018-03-27T01:38:22.203Z,989.95
2018-03-27T01:39:22.402Z,989.93
2018-03-27T01:40:22.630Z,989.92
2018-03-27T01:41:22.834Z,989.90
2018-03-27T01:42:23.082Z,989.91
2018-03-27T01:43:23.309Z,989.92
2018-03-27T01:44:23.531Z,989.89
2018-03-27T01:45:23.754Z,989.90
2018-03-27T01:46:23.993Z,989.91
2018-03-27T01:47:24.198Z,989.94
2018-03-27T01:48:24.422Z,989.91
2018-03-27T01:49:24.642Z,989.91
2018-03-27T01:50:24.865Z,989.89
2018-03-27T01:51:25.087Z,989.95
2018-03-27T01:52:25.310Z,989.93
2018-03-27T01:53:25.534Z,989.97
2018-03-27T01:54:25.763Z,990.01
2018-03-27T01:55:25.996Z,990.01
2018-03-27T01:56:26.204Z,989.96
2018-03-27T01:57:26.438Z,990.00
2018-03-27T01:58:26.650Z,989.94
2018-03-27T01:59:26.875Z,989.92
2018-03-27T02:00:27.100Z,989.90
2018-03-27T02:01:27.324Z,989.92
2018-03-27T02:02:27.553Z,989.91
2018-03-27T02:03:27.771Z,989.95
2018-03-27T02:04:27.994Z,989.97
2018-03-27T02:05:28.210Z,989.97
2018-03-27T02:06:28.438Z,989.95
2018-03-27T02:07:28.718Z,989.93
2018-03-27T02:08:28.832Z,989.98
2018-03-27T02:09:29.052Z,989.96
2018-03-27T02:10:29.286Z,989.98
2018-03-27T02:11:29.524Z,990.00
2018-03-27T02:12:29.713Z,989.96
2018-03-27T02:13:29.946Z,989.94
2018-03-27T02:14:30.161Z,989.95
2018-03-27T02:15:30.386Z,989.95
2018-03-27T02:16:30.617Z,989.94
2018-03-27T02:17:30.831Z,989.94
2018-03-27T02:18:31.068Z,989.96
2018-03-27T02:19:31.283Z,989.99
2018-03-27T02:20:31.507Z,989.97
2018-03-27T02:21:31.738Z,990.00
2018-03-27T02:22:31.958Z,990.01
2018-03-27T02:23:32.192Z,990.03
2018-03-27T02:24:32.414Z,990.06
2018-03-27T02:25:32.642Z,990.08
2018-03-27T02:26:32.855Z,990.08
2018-03-27T02:27:33.079Z,990.09
2018-03-27T02:28:33.305Z,989.99
2018-03-27T02:29:33.521Z,990.03
2018-03-27T02:30:33.751Z,990.00
2018-03-27T02:31:33.972Z,990.05
2018-03-27T02:32:34.187Z,990.04
2018-03-27T02:33:34.410Z,990.05
2018-03-27T02:34:34.679Z,990.01
2018-03-27T02:35:34.859Z,990.05
2018-03-27T02:36:35.084Z,990.00
2018-03-27T02:37:35.308Z,990.01
2018-03-27T02:38:35.540Z,990.04
2018-03-27T02:39:35.761Z,990.02
2018-03-27T02:40:35.988Z,990.01
2018-03-27T02:41:36.217Z,990.00
2018-03-27T02:42:36.431Z,990.00
2018-03-27T02:43:36.664Z,989.98
2018-03-27T02:44:36.870Z,989.98
2018-03-27T02:45:37.095Z,989.98
2018-03-27T02:46:37.309Z,989.95
2018-03-27T02:47:37.534Z,989.98
2018-03-27T02:48:37.748Z,989.91
2018-03-27T02:49:37.990Z,989.89
2018-03-27T02:50:38.212Z,989.87
2018-03-27T02:51:38.451Z,989.82
2018-03-27T02:52:38.666Z,989.87
2018-03-27T02:53:38.888Z,989.84
2018-03-27T02:54:39.125Z,989.86
2018-03-27T02:55:39.336Z,989.83
2018-03-27T02:56:39.566Z,989.79
2018-03-27T02:57:39.792Z,989.82
2018-03-27T02:58:40.018Z,989.79
2018-03-27T02:59:40.255Z,989.83
2018-03-27T03:00:40.468Z,989.80
2018-03-27T03:01:40.702Z,989.81
2018-03-27T03:02:40.922Z,989.78
2018-03-27T03:03:41.134Z,989.80
2018-03-27T03:04:41.356Z,989.85
2018-03-27T03:05:41.584Z,989.83
2018-03-27T03:06:41.804Z,989.82
2018-03-27T03:07:42.030Z,989.82
2018-03-27T03:08:42.251Z,989.81
2018-03-27T03:09:42.482Z,989.83
2018-03-27T03:10:42.705Z,989.83
2018-03-27T03:11:42.928Z,989.85
2018-03-27T03:12:43.151Z,989.82
2018-03-27T03:13:43.379Z,989.86
2018-03-27T03:14:43.592Z,989.86
2018-03-27T03:15:43.822Z,989.84
2018-03-27T03:16:44.054Z,989.82
2018-03-27T03:17:44.270Z,989.85
2018-03-27T03:18:44.502Z,989.87
2018-03-27T03:19:44.715Z,989.87
2018-03-27T03:20:44.945Z,989.85
2018-03-27T03:21:45.163Z,989.86
2018-03-27T03:22:45.392Z,989.93
2018-03-27T03:23:45.616Z,989.90
2018-03-27T03:24:45.854Z,989.92
2018-03-27T03:25:46.061Z,989.92
2018-03-27T03:26:46.280Z,989.92
2018-03-27T03:27:46.509Z,989.85
2018-03-27T03:28:46.733Z,989.83
2018-03-27T03:29:46.962Z,989.79
2018-03-27T03:30:47.196Z,989.75
2018-03-27T03:31:47.413Z,989.72
2018-03-27T03:32:47.638Z,989.70
2018-03-27T03:33:47.861Z,989.67
2018-03-27T03:34:48.084Z,989.63
2018-03-27T03:35:48.311Z,989.62
2018-03-27T03:36:48.533Z,989.61
2018-03-27T03:37:48.755Z,989.62
2018-03-27T03:38:48.986Z,989.63
2018-03-27T03:39:49.207Z,989.61
2018-03-27T03:40:49.433Z,989.60
2018-03-27T03:41:49.657Z,989.59
2018-03-27T03:42:49.886Z,989.61
2018-03-27T03:43:50.107Z,989.59
2018-03-27T03:44:50.327Z,989.57
2018-03-27T03:45:50.553Z,989.55
2018-03-27T03:46:50.791Z,989.55
2018-03-27T03:47:50.998Z,989.51
2018-03-27T03:48:51.226Z,989.53
2018-03-27T03:49:51.460Z,989.52
2018-03-27T03:50:51.672Z,989.49
2018-03-27T03:51:51.897Z,989.48
2018-03-27T03:52:52.122Z,989.46
2018-03-27T03:53:52.346Z,989.43
2018-03-27T03:54:52.582Z,989.42
2018-03-27T03:55:52.812Z,989.47
2018-03-27T03:56:53.034Z,989.48
2018-03-27T03:57:53.258Z,989.43
2018-03-27T03:58:53.486Z,989.49
2018-03-27T03:59:53.710Z,989.42
2018-03-27T04:00:53.933Z,989.43
2018-03-27T04:01:54.161Z,989.44
2018-03-27T04:02:54.388Z,989.45
2018-03-27T04:03:54.617Z,989.45
2018-03-27T04:04:54.837Z,989.44
2018-03-27T04:05:55.066Z,989.44
2018-03-27T04:06:55.286Z,989.45
2018-03-27T04:07:55.510Z,989.43
2018-03-27T04:08:55.743Z,989.42
2018-03-27T04:09:55.966Z,989.46
2018-03-27T04:10:56.190Z,989.42
2018-03-27T04:11:56.412Z,989.40
2018-03-27T04:12:56.635Z,989.37
2018-03-27T04:13:56.863Z,989.38
2018-03-27T04:14:57.097Z,989.42
2018-03-27T04:15:57.315Z,989.42
2018-03-27T04:16:57.540Z,989.39
2018-03-27T04:17:57.766Z,989.39
2018-03-27T04:18:57.990Z,989.42
2018-03-27T04:19:58.217Z,989.41
2018-03-27T04:20:58.436Z,989.40
2018-03-27T04:21:58.661Z,989.41
2018-03-27T04:22:58.884Z,989.42
2018-03-27T04:23:59.112Z,989.42
2018-03-27T04:24:59.338Z,989.42
2018-03-27T04:25:59.563Z,989.46
2018-03-27T04:26:59.788Z,989.45
2018-03-27T04:28:00.017Z,989.39
2018-03-27T04:29:00.241Z,989.43
2018-03-27T04:30:00.465Z,989.43
2018-03-27T04:31:00.692Z,989.40
2018-03-27T04:32:00.918Z,989.40
2018-03-27T04:33:01.142Z,989.38
2018-03-27T04:34:10.430Z,989.35
2018-03-27T04:35:09.506Z,989.36
2018-03-27T04:36:09.524Z,989.35
2018-03-27T04:37:09.702Z,989.36
2018-03-27T04:38:09.952Z,989.34
2018-03-27T04:39:02.506Z,989.35
2018-03-27T04:40:10.407Z,989.35
2018-03-27T04:41:12.339Z,989.32
2018-03-27T04:42:10.817Z,989.37
2018-03-27T04:43:03.403Z,989.31
2018-03-27T04:44:03.614Z,989.33
2018-03-27T04:45:03.838Z,989.30
2018-03-27T04:46:04.061Z,989.31
2018-03-27T04:47:04.335Z,989.29
2018-03-27T04:48:04.520Z,989.31
2018-03-27T04:49:04.746Z,989.32
2018-03-27T04:50:04.964Z,989.34
2018-03-27T04:51:05.185Z,989.35
2018-03-27T04:52:05.423Z,989.36
2018-03-27T04:53:05.645Z,989.34
2018-03-27T04:54:05.865Z,989.35
2018-03-27T04:55:06.090Z,989.36
2018-03-27T04:56:06.348Z,989.34
2018-03-27T04:57:06.542Z,989.33
2018-03-27T04:58:06.758Z,989.35
2018-03-27T04:59:06.984Z,989.34
2018-03-27T05:00:07.207Z,989.30
2018-03-27T05:01:07.425Z,989.34
2018-03-27T05:02:07.650Z,989.32
2018-03-27T05:03:07.923Z,989.30
2018-03-27T05:04:08.155Z,989.31
2018-03-27T05:05:08.375Z,989.26
2018-03-27T05:06:08.590Z,989.30
2018-03-27T05:07:08.812Z,989.28
2018-03-27T05:08:09.037Z,989.30
2018-03-27T05:09:09.267Z,989.32
2018-03-27T05:10:09.486Z,989.30
2018-03-27T05:11:09.709Z,989.33
2018-03-27T05:12:09.931Z,989.38
2018-03-27T05:13:10.158Z,989.35
2018-03-27T05:14:10.383Z,989.37
2018-03-27T05:15:10.604Z,989.37
2018-03-27T05:16:10.833Z,989.39
2018-03-27T05:17:11.054Z,989.41
2018-03-27T05:18:11.280Z,989.36
2018-03-27T05:19:11.501Z,989.32
2018-03-27T05:20:11.726Z,989.31
2018-03-27T05:21:11.991Z,989.30
2018-03-27T05:22:12.174Z,989.28
2018-03-27T05:23:12.399Z,989.33
2018-03-27T05:24:12.622Z,989.31
2018-03-27T05:25:12.849Z,989.34
2018-03-27T05:26:13.069Z,989.37
2018-03-27T05:27:13.301Z,989.35
2018-03-27T05:28:13.511Z,989.33
2018-03-27T05:29:13.736Z,989.31
2018-03-27T05:30:13.962Z,989.33
2018-03-27T05:31:14.187Z,989.34
2018-03-27T05:32:14.419Z,989.31
2018-03-27T05:33:14.647Z,989.33
2018-03-27T05:34:14.869Z,989.37
2018-03-27T05:35:15.101Z,989.34
2018-03-27T05:36:15.327Z,989.40
2018-03-27T05:37:15.541Z,989.30
2018-03-27T05:38:15.768Z,989.35
2018-03-27T05:39:15.988Z,989.36
2018-03-27T05:40:16.209Z,989.36
2018-03-27T05:41:16.435Z,989.39
2018-03-27T05:42:16.650Z,989.35
2018-03-27T05:43:16.872Z,989.40
2018-03-27T05:44:17.098Z,989.39
2018-03-27T05:45:17.329Z,989.39
2018-03-27T05:46:17.545Z,989.32
2018-03-27T05:47:17.774Z,989.30
2018-03-27T05:48:18.002Z,989.23
2018-03-27T05:49:18.227Z,989.24
2018-03-27T05:50:18.447Z,989.20
2018-03-27T05:51:18.672Z,989.25
2018-03-27T05:52:18.896Z,989.29
2018-03-27T05:53:19.127Z,989.30
2018-03-27T05:54:19.356Z,989.33
2018-03-27T05:55:19.584Z,989.30
2018-03-27T05:56:19.804Z,989.31
2018-03-27T05:57:20.028Z,989.30
2018-03-27T05:58:20.254Z,989.32
2018-03-27T05:59:20.479Z,989.35
2018-03-27T06:00:20.699Z,989.36
2018-03-27T06:01:20.921Z,989.32
2018-03-27T06:02:21.147Z,989.30
2018-03-27T06:03:21.372Z,989.28
2018-03-27T06:04:21.598Z,989.29
2018-03-27T06:05:21.822Z,989.31
2018-03-27T06:06:22.053Z,989.30
2018-03-27T06:07:22.285Z,989.29
2018-03-27T06:08:22.501Z,989.33
2018-03-27T06:09:22.731Z,989.34
2018-03-27T06:10:22.960Z,989.33
2018-03-27T06:11:23.182Z,989.36
2018-03-27T06:12:23.412Z,989.35
2018-03-27T06:13:23.635Z,989.32
2018-03-27T06:14:23.871Z,989.36
2018-03-27T06:15:24.093Z,989.36
2018-03-27T06:16:24.314Z,989.33
2018-03-27T06:17:24.543Z,989.36
2018-03-27T06:18:24.764Z,989.27
2018-03-27T06:19:24.992Z,989.31
2018-03-27T06:20:25.212Z,989.31
2018-03-27T06:21:25.430Z,989.30
2018-03-27T06:22:25.666Z,989.32
2018-03-27T06:23:25.880Z,989.33
2018-03-27T06:24:26.103Z,989.31
2018-03-27T06:25:26.333Z,989.31
2018-03-27T06:26:26.557Z,989.31
2018-03-27T06:27:26.807Z,989.31
2018-03-27T06:28:26.997Z,989.38
2018-03-27T06:29:27.236Z,989.41
2018-03-27T06:30:27.459Z,989.40
2018-03-27T06:31:27.677Z,989.44
2018-03-27T06:32:27.895Z,989.43
2018-03-27T06:33:28.127Z,989.48
2018-03-27T06:34:28.342Z,989.45
2018-03-27T06:35:28.569Z,989.42
2018-03-27T06:36:28.792Z,989.43
2018-03-27T06:37:29.014Z,989.46
2018-03-27T06:38:29.245Z,989.47
2018-03-27T06:39:29.462Z,989.45
2018-03-27T06:40:29.700Z,989.45
2018-03-27T06:41:29.919Z,989.49
2018-03-27T06:42:30.145Z,989.47
2018-03-27T06:43:30.356Z,989.46
2018-03-27T06:44:30.581Z,989.49
2018-03-27T06:45:30.808Z,989.49
2018-03-27T06:46:31.035Z,989.49
2018-03-27T06:47:31.255Z,989.49
2018-03-27T06:48:31.480Z,989.49
2018-03-27T06:49:31.708Z,989.48
2018-03-27T06:50:31.935Z,989.48
2018-03-27T06:51:32.160Z,989.46
2018-03-27T06:52:32.383Z,989.52
2018-03-27T06:53:32.610Z,989.52
2018-03-27T06:54:32.836Z,989.53
2018-03-27T06:55:33.057Z,989.50
2018-03-27T06:56:33.284Z,989.49
2018-03-27T06:57:33.510Z,989.52
2018-03-27T06:58:33.740Z,989.44
2018-03-27T06:59:33.963Z,989.41
2018-03-27T07:00:34.210Z,989.43
2018-03-27T07:01:34.419Z,989.44
2018-03-27T07:02:34.659Z,989.42
2018-03-27T07:03:34.866Z,989.37
2018-03-27T07:04:35.123Z,989.39
2018-03-27T07:05:35.396Z,989.42
2018-03-27T07:06:35.550Z,989.36
2018-03-27T07:07:35.802Z,989.40
2018-03-27T07:08:36.019Z,989.37
2018-03-27T07:09:36.228Z,989.40
2018-03-27T07:10:36.463Z,989.40
2018-03-27T07:11:36.688Z,989.42
2018-03-27T07:12:36.909Z,989.40
2018-03-27T07:13:37.137Z,989.38
2018-03-27T07:14:37.366Z,989.39
2018-03-27T07:15:37.582Z,989.39
2018-03-27T07:16:37.851Z,989.41
2018-03-27T07:17:38.063Z,989.42
2018-03-27T07:18:38.277Z,989.41
2018-03-27T07:19:38.508Z,989.34
2018-03-27T07:20:38.761Z,989.38
2018-03-27T07:21:38.941Z,989.36
2018-03-27T07:22:39.177Z,989.37
2018-03-27T07:23:39.391Z,989.34
2018-03-27T07:24:39.617Z,989.37
2018-03-27T07:25:39.845Z,989.36
2018-03-27T07:26:40.068Z,989.37
2018-03-27T07:27:40.301Z,989.34
2018-03-27T07:28:40.524Z,989.36
2018-03-27T07:29:40.755Z,989.31
2018-03-27T07:30:40.994Z,989.33
2018-03-27T07:31:41.192Z,989.33
2018-03-27T07:32:41.417Z,989.33
2018-03-27T07:33:41.644Z,989.31
2018-03-27T07:34:41.872Z,989.29
2018-03-27T07:35:42.099Z,989.30
2018-03-27T07:36:42.321Z,989.32
2018-03-27T07:37:42.549Z,989.30
2018-03-27T07:38:42.800Z,989.32
2018-03-27T07:39:43.002Z,989.33
2018-03-27T07:40:43.226Z,989.32
2018-03-27T07:41:43.451Z,989.33
2018-03-27T07:42:43.686Z,989.37
2018-03-27T07:43:43.967Z,989.35
2018-03-27T07:44:44.409Z,989.34
2018-03-27T07:45:44.314Z,989.32
2018-03-27T07:46:44.531Z,989.34
2018-03-27T07:47:44.767Z,989.35
2018-03-27T07:48:44.991Z,989.32
2018-03-27T07:49:45.215Z,989.32
2018-03-27T07:50:45.442Z,989.33
2018-03-27T07:51:53.458Z,989.32
2018-03-27T07:52:53.665Z,989.37
2018-03-27T07:53:54.850Z,989.29
2018-03-27T07:54:54.112Z,989.31
2018-03-27T07:55:54.347Z,989.30
2018-03-27T07:56:55.794Z,989.30
2018-03-27T07:57:55.095Z,989.28
2018-03-27T07:58:56.330Z,989.24
2018-03-27T07:59:55.321Z,989.24
2018-03-27T08:00:47.847Z,989.22
2018-03-27T08:01:48.075Z,989.19
2018-03-27T08:02:48.310Z,989.18
2018-03-27T08:03:48.532Z,989.17
2018-03-27T08:04:48.758Z,989.17
2018-03-27T08:05:48.996Z,989.15
2018-03-27T08:06:49.209Z,989.10
2018-03-27T08:07:49.435Z,989.11
2018-03-27T08:08:49.665Z,989.13
2018-03-27T08:09:49.891Z,989.14
2018-03-27T08:10:50.112Z,989.10
2018-03-27T08:11:50.337Z,989.12
2018-03-27T08:12:50.601Z,989.12
2018-03-27T08:13:50.821Z,989.16
2018-03-27T08:14:51.049Z,989.17
2018-03-27T08:15:51.263Z,989.20
2018-03-27T08:16:51.494Z,989.17
2018-03-27T08:17:51.712Z,989.12
2018-03-27T08:18:51.937Z,989.10
2018-03-27T08:19:52.160Z,989.07
2018-03-27T08:20:52.387Z,989.08
2018-03-27T08:21:52.615Z,989.05
2018-03-27T08:22:52.846Z,989.05
2018-03-27T08:23:53.066Z,989.04
2018-03-27T08:24:53.291Z,989.05
2018-03-27T08:25:53.513Z,989.01
2018-03-27T08:26:53.740Z,989.03
2018-03-27T08:27:53.968Z,989.02
2018-03-27T08:28:54.202Z,989.02
2018-03-27T08:29:54.430Z,989.02
2018-03-27T08:30:54.653Z,989.01
2018-03-27T08:31:54.882Z,989.01
2018-03-27T08:32:55.103Z,989.01
2018-03-27T08:33:55.334Z,988.96
2018-03-27T08:34:55.586Z,988.94
2018-03-27T08:35:55.808Z,988.92
2018-03-27T08:36:56.049Z,988.96
2018-03-27T08:37:56.218Z,988.94
2018-03-27T08:38:56.453Z,988.95
2018-03-27T08:39:56.687Z,988.97
2018-03-27T08:40:56.916Z,988.93
2018-03-27T08:41:57.140Z,988.95
2018-03-27T08:42:57.368Z,988.91
2018-03-27T08:43:57.588Z,988.93
2018-03-27T08:44:57.811Z,988.92
2018-03-27T08:45:58.036Z,988.88
2018-03-27T08:46:58.256Z,988.90
2018-03-27T08:47:58.492Z,988.90
2018-03-27T08:48:58.713Z,988.88
2018-03-27T08:49:58.943Z,988.79
2018-03-27T08:50:59.165Z,988.85
2018-03-27T08:51:59.393Z,988.82
2018-03-27T08:52:59.617Z,988.84
2018-03-27T08:53:59.843Z,988.82
2018-03-27T08:55:00.082Z,988.85
2018-03-27T08:56:00.314Z,988.82
2018-03-27T08:57:00.533Z,988.79
2018-03-27T08:58:00.760Z,988.78
2018-03-27T08:59:00.990Z,988.78
2018-03-27T09:00:01.274Z,988.80
2018-03-27T09:01:01.485Z,988.83
2018-03-27T09:02:01.710Z,988.81
2018-03-27T09:03:02.042Z,988.80
2018-03-27T09:04:02.135Z,988.80
2018-03-27T09:05:02.360Z,988.77
2018-03-27T09:06:02.595Z,988.77
2018-03-27T09:07:02.822Z,988.76
2018-03-27T09:08:03.045Z,988.74
2018-03-27T09:09:03.279Z,988.78
2018-03-27T09:10:03.505Z,988.76
2018-03-27T09:11:03.733Z,988.76
2018-03-27T09:12:03.958Z,988.79
2018-03-27T09:13:04.178Z,988.74
2018-03-27T09:14:04.400Z,988.72
2018-03-27T09:15:04.628Z,988.74
2018-03-27T09:16:04.852Z,988.77
2018-03-27T09:17:05.096Z,988.73
2018-03-27T09:18:05.309Z,988.77
2018-03-27T09:19:05.535Z,988.75
2018-03-27T09:20:05.762Z,988.77
2018-03-27T09:21:05.990Z,988.76
2018-03-27T09:22:06.215Z,988.77
2018-03-27T09:23:06.441Z,988.68
2018-03-27T09:24:06.669Z,988.72
2018-03-27T09:25:06.896Z,988.69
2018-03-27T09:26:07.123Z,988.68
2018-03-27T09:27:07.392Z,988.67
2018-03-27T09:28:07.600Z,988.67
2018-03-27T09:29:07.816Z,988.68
2018-03-27T09:30:08.051Z,988.63
2018-03-27T09:31:08.269Z,988.70
2018-03-27T09:32:08.505Z,988.66
2018-03-27T09:33:08.714Z,988.62
2018-03-27T09:34:08.943Z,988.62
2018-03-27T09:35:09.172Z,988.60
2018-03-27T09:36:09.399Z,988.54
2018-03-27T09:37:09.631Z,988.47
2018-03-27T09:38:09.857Z,988.44
2018-03-27T09:39:10.084Z,988.45
2018-03-27T09:40:10.340Z,988.43
2018-03-27T09:41:10.544Z,988.45
2018-03-27T09:42:10.772Z,988.41
2018-03-27T09:43:10.998Z,988.41
2018-03-27T09:44:11.231Z,988.45
2018-03-27T09:45:11.457Z,988.43
2018-03-27T09:46:11.698Z,988.48
2018-03-27T09:47:11.920Z,988.48
2018-03-27T09:48:12.174Z,988.45
2018-03-27T09:49:12.396Z,988.44
2018-03-27T09:50:12.621Z,988.40
2018-03-27T09:51:12.847Z,988.42
2018-03-27T09:52:13.078Z,988.38
2018-03-27T09:53:13.303Z,988.40
2018-03-27T09:54:13.530Z,988.35
2018-03-27T09:55:13.767Z,988.35
2018-03-27T09:56:13.984Z,988.35
2018-03-27T09:57:14.214Z,988.34
2018-03-27T09:58:14.444Z,988.28
2018-03-27T09:59:14.670Z,988.32
2018-03-27T10:00:14.896Z,988.30
2018-03-27T10:01:15.124Z,988.27
2018-03-27T10:02:15.358Z,988.29
2018-03-27T10:03:15.590Z,988.24
2018-03-27T10:04:15.814Z,988.28
2018-03-27T10:05:16.044Z,988.25
2018-03-27T10:06:16.348Z,988.26
2018-03-27T10:07:16.516Z,988.23
2018-03-27T10:08:16.778Z,988.22
2018-03-27T10:09:16.973Z,988.27
2018-03-27T10:10:17.192Z,988.25
2018-03-27T10:11:17.415Z,988.27
2018-03-27T10:12:17.815Z,988.30
2018-03-27T10:13:17.810Z,988.23
2018-03-27T10:14:18.029Z,988.24
2018-03-27T10:15:18.264Z,988.21
2018-03-27T10:16:18.477Z,988.19
2018-03-27T10:17:18.713Z,988.18
2018-03-27T10:18:18.939Z,988.16
2018-03-27T10:19:19.175Z,988.16
2018-03-27T10:20:19.391Z,988.12
2018-03-27T10:21:19.622Z,988.13
2018-03-27T10:22:19.866Z,988.11
2018-03-27T10:23:20.091Z,988.07
2018-03-27T10:24:20.352Z,988.06
2018-03-27T10:25:20.587Z,988.08
2018-03-27T10:26:20.801Z,987.99
2018-03-27T10:27:21.046Z,988.01
2018-03-27T10:28:21.257Z,987.99
2018-03-27T10:29:21.478Z,988.01
2018-03-27T10:30:21.708Z,987.96
2018-03-27T10:31:21.927Z,987.95
2018-03-27T10:32:22.157Z,987.98
2018-03-27T10:33:22.396Z,987.94
2018-03-27T10:34:22.631Z,987.96
2018-03-27T10:35:22.850Z,987.88
2018-03-27T10:36:23.100Z,987.87
2018-03-27T10:37:23.308Z,987.86
2018-03-27T10:38:23.534Z,987.88
2018-03-27T10:39:23.756Z,987.85
2018-03-27T10:40:23.995Z,987.91
2018-03-27T10:41:24.223Z,987.92
2018-03-27T10:42:24.457Z,987.87
2018-03-27T10:43:24.684Z,987.84
2018-03-27T10:44:24.914Z,987.84
2018-03-27T10:45:25.205Z,987.83
2018-03-27T10:46:25.375Z,987.76
2018-03-27T10:47:25.606Z,987.76
2018-03-27T10:48:25.828Z,987.77
2018-03-27T10:49:26.057Z,987.77
2018-03-27T10:50:26.288Z,987.80
2018-03-27T10:51:26.517Z,987.77
2018-03-27T10:52:26.745Z,987.79
2018-03-27T10:53:26.972Z,987.74
2018-03-27T10:54:27.199Z,987.72
2018-03-27T10:55:27.419Z,987.71
2018-03-27T10:56:27.653Z,987.74
2018-03-27T10:57:27.883Z,987.70
2018-03-27T10:58:28.110Z,987.72
2018-03-27T10:59:28.338Z,987.71
2018-03-27T11:00:28.570Z,987.70
2018-03-27T11:01:28.792Z,987.71
2018-03-27T11:02:29.023Z,987.66
2018-03-27T11:03:29.249Z,987.64
2018-03-27T11:04:29.492Z,987.63
2018-03-27T11:05:29.721Z,987.61
2018-03-27T11:06:29.940Z,987.61
2018-03-27T11:07:30.169Z,987.58
2018-03-27T11:08:30.403Z,987.56
2018-03-27T11:09:30.629Z,987.56
2018-03-27T11:10:30.857Z,987.52
2018-03-27T11:11:31.085Z,987.51
2018-03-27T11:12:31.316Z,987.53
2018-03-27T11:13:31.539Z,987.49
2018-03-27T11:14:31.775Z,987.45
2018-03-27T11:15:31.997Z,987.44
2018-03-27T11:16:32.231Z,987.41
2018-03-27T11:17:32.480Z,987.41
2018-03-27T11:18:32.683Z,987.37
2018-03-27T11:19:32.910Z,987.37
2018-03-27T11:20:33.145Z,987.35
2018-03-27T11:21:33.374Z,987.33
2018-03-27T11:22:33.603Z,987.33
2018-03-27T11:23:41.595Z,987.38
2018-03-27T11:24:41.817Z,987.32
2018-03-27T11:25:42.114Z,987.30
2018-03-27T11:26:42.402Z,987.26
2018-03-27T11:27:34.881Z,987.24
2018-03-27T11:28:35.113Z,987.21
2018-03-27T11:29:43.054Z,987.28
2018-03-27T11:30:43.276Z,987.21
2018-03-27T11:31:43.685Z,987.17
2018-03-27T11:32:43.851Z,987.17
2018-03-27T11:33:36.373Z,987.11
2018-03-27T11:34:36.613Z,987.14
2018-03-27T11:35:36.848Z,987.12
2018-03-27T11:36:37.078Z,987.12
2018-03-27T11:37:37.304Z,987.12
2018-03-27T11:38:37.532Z,987.10
2018-03-27T11:39:37.758Z,987.07
2018-03-27T11:40:37.978Z,987.12
2018-03-27T11:41:38.218Z,987.10
2018-03-27T11:42:38.450Z,987.09
2018-03-27T11:43:38.682Z,987.10
2018-03-27T11:44:38.901Z,987.10
2018-03-27T11:45:39.134Z,987.09
2018-03-27T11:46:39.354Z,987.12
2018-03-27T11:47:39.588Z,987.08
2018-03-27T11:48:39.821Z,987.05
2018-03-27T11:49:40.090Z,986.95
2018-03-27T11:50:40.261Z,986.94
2018-03-27T11:51:40.499Z,986.99
2018-03-27T11:52:40.725Z,986.92
2018-03-27T11:53:40.953Z,986.91
2018-03-27T11:54:41.195Z,986.91
2018-03-27T11:55:41.408Z,986.92
2018-03-27T11:56:41.645Z,986.93
2018-03-27T11:57:41.870Z,986.91
2018-03-27T11:58:42.096Z,986.89
2018-03-27T11:59:42.324Z,986.92
2018-03-27T12:00:42.557Z,986.88
2018-03-27T12:01:42.780Z,986.88
2018-03-27T12:02:43.007Z,986.88
2018-03-27T12:03:43.237Z,986.87
2018-03-27T12:04:43.470Z,986.92
2018-03-27T12:05:43.697Z,986.84
2018-03-27T12:06:43.923Z,986.93
2018-03-27T12:07:44.152Z,986.93
2018-03-27T12:08:44.374Z,986.92
2018-03-27T12:09:44.624Z,986.96
2018-03-27T12:10:44.855Z,986.87
2018-03-27T12:11:45.088Z,986.90
2018-03-27T12:12:45.315Z,986.91
2018-03-27T12:13:45.625Z,986.87
2018-03-27T12:14:45.759Z,986.87
2018-03-27T12:15:45.993Z,986.85
2018-03-27T12:16:46.238Z,986.83
2018-03-27T12:17:46.443Z,986.84
2018-03-27T12:18:46.672Z,986.82
2018-03-27T12:19:46.903Z,986.79
2018-03-27T12:20:47.133Z,986.74
2018-03-27T12:21:47.385Z,986.69
2018-03-27T12:22:47.584Z,986.72
2018-03-27T12:23:47.813Z,986.70
2018-03-27T12:24:48.050Z,986.69
2018-03-27T12:25:48.284Z,986.68
2018-03-27T12:26:48.512Z,986.69
2018-03-27T12:27:48.797Z,986.61
2018-03-27T12:28:48.976Z,986.60
2018-03-27T12:29:49.200Z,986.59
2018-03-27T12:30:49.426Z,986.57